createdAt,value
2023-05-05T00:00:24.606Z,12.34
2023-05-05T00:03:12.291Z,12.28
2023-05-05T00:05:40.779Z,12.24
2023-05-05T00:08:09.326Z,12.23
2023-05-05T00:10:41.424Z,12.19
2023-05-05T00:13:10.068Z,12.17
2023-05-05T00:15:38.865Z,12.12
2023-05-05T00:18:07.818Z,12.07
2023-05-05T00:20:36.957Z,12.03
2023-05-05T00:23:06.240Z,12.02
2023-05-05T00:25:34.635Z,12.00
2023-05-05T00:28:03.137Z,11.96
2023-05-05T00:30:32.033Z,11.90
2023-05-05T00:33:00.774Z,11.92
2023-05-05T00:35:29.239Z,11.88
2023-05-05T00:37:57.667Z,11.85
2023-05-05T00:40:26.937Z,11.82
2023-05-05T00:42:55.361Z,11.79
2023-05-05T00:45:23.732Z,11.78
2023-05-05T00:47:57.799Z,11.80
2023-05-05T00:50:31.353Z,11.79
2023-05-05T00:53:04.173Z,11.79
2023-05-05T00:55:34.416Z,11.80
2023-05-05T00:58:06.783Z,11.82
2023-05-05T01:00:36.586Z,11.85
2023-05-05T01:03:05.778Z,11.85
2023-05-05T01:05:47.893Z,11.84
2023-05-05T01:08:51.451Z,11.83
2023-05-05T01:11:38.958Z,11.82
2023-05-05T01:14:18.595Z,11.79
2023-05-05T01:17:00.263Z,11.76
2023-05-05T01:19:37.570Z,11.75
2023-05-05T01:22:09.449Z,11.77
2023-05-05T01:24:45.924Z,11.76
2023-05-05T01:27:30.770Z,11.74
2023-05-05T01:30:29.834Z,11.73
2023-05-05T01:33:08.708Z,11.73
2023-05-05T01:35:42.599Z,11.73
2023-05-05T01:38:21.973Z,11.68
2023-05-05T01:41:02.032Z,11.67
2023-05-05T01:43:34.866Z,11.67
2023-05-05T01:46:04.183Z,11.68
2023-05-05T01:48:33.676Z,11.70
2023-05-05T01:51:03.968Z,11.69
2023-05-05T01:53:33.136Z,11.68
2023-05-05T01:56:03.015Z,11.66
2023-05-05T01:58:33.043Z,11.61
2023-05-05T02:01:02.412Z,11.57
2023-05-05T02:03:34.197Z,11.54
2023-05-05T02:06:03.957Z,11.54
2023-05-05T02:08:35.186Z,11.52
2023-05-05T02:11:04.840Z,11.50
2023-05-05T02:13:33.935Z,11.50
2023-05-05T02:16:03.578Z,11.49
2023-05-05T02:18:36.078Z,11.47
2023-05-05T02:21:05.126Z,11.49
2023-05-05T02:23:34.318Z,11.48
2023-05-05T02:26:08.445Z,11.45
2023-05-05T02:28:36.753Z,11.44
2023-05-05T02:31:07.685Z,11.43
2023-05-05T02:33:39.522Z,11.45
2023-05-05T02:36:22.232Z,11.45
2023-05-05T02:39:03.629Z,11.42
2023-05-05T02:41:38.431Z,11.41
2023-05-05T02:44:13.872Z,11.43
2023-05-05T02:46:43.377Z,11.42
2023-05-05T02:49:11.780Z,11.40
2023-05-05T02:51:40.598Z,11.37
2023-05-05T02:54:14.180Z,11.37
2023-05-05T02:56:52.201Z,11.38
2023-05-05T03:00:02.510Z,11.40
2023-05-05T03:02:40.613Z,11.42
2023-05-05T03:05:41.392Z,11.40
2023-05-05T03:08:17.209Z,11.43
2023-05-05T03:11:19.118Z,11.41
2023-05-05T03:13:52.420Z,11.42
2023-05-05T03:16:24.974Z,11.41
2023-05-05T03:18:55.629Z,11.42
2023-05-05T03:21:24.109Z,11.45
2023-05-05T03:23:52.589Z,11.48
2023-05-05T03:26:22.162Z,11.52
2023-05-05T03:28:51.308Z,11.58
2023-05-05T03:31:24.076Z,11.65
2023-05-05T03:33:55.622Z,11.74
2023-05-05T03:36:29.403Z,11.80
2023-05-05T03:38:58.978Z,11.86
2023-05-05T03:41:28.900Z,11.94
2023-05-05T03:43:57.580Z,12.00
2023-05-05T03:46:26.389Z,12.08
2023-05-05T03:48:57.380Z,12.11
2023-05-05T03:51:27.127Z,12.20
2023-05-05T03:53:55.774Z,12.24
2023-05-05T03:56:24.401Z,12.22
2023-05-05T03:58:53.540Z,12.27
2023-05-05T04:01:22.245Z,12.27
2023-05-05T04:03:50.767Z,12.34
2023-05-05T04:06:19.263Z,12.39
2023-05-05T04:08:47.780Z,12.43
2023-05-05T04:11:16.809Z,12.49
2023-05-05T04:13:45.148Z,12.53
2023-05-05T04:16:14.107Z,12.58
2023-05-05T04:18:42.743Z,12.68
2023-05-05T04:21:11.344Z,12.83
2023-05-05T04:23:40.014Z,12.87
2023-05-05T04:26:08.764Z,12.92
2023-05-05T04:28:37.552Z,12.99
2023-05-05T04:31:06.300Z,13.00
2023-05-05T04:33:36.912Z,13.09
2023-05-05T04:36:05.561Z,13.16
2023-05-05T04:38:34.222Z,13.21
2023-05-05T04:41:06.480Z,13.23
2023-05-05T04:43:35.200Z,13.21
2023-05-05T04:46:04.290Z,13.17
2023-05-05T04:48:34.516Z,13.09
2023-05-05T04:51:07.269Z,13.11
2023-05-05T04:53:36.358Z,12.97
2023-05-05T04:56:04.754Z,12.89
2023-05-05T04:58:33.635Z,12.96
2023-05-05T05:01:01.952Z,13.08
2023-05-05T05:03:32.120Z,12.94
2023-05-05T05:06:00.709Z,12.95
2023-05-05T05:08:29.009Z,12.83
2023-05-05T05:10:57.362Z,12.80
2023-05-05T05:13:26.297Z,12.77
2023-05-05T05:15:54.817Z,12.83
2023-05-05T05:18:23.240Z,12.91
2023-05-05T05:20:52.079Z,12.98
2023-05-05T05:23:21.194Z,13.14
2023-05-05T05:25:49.690Z,13.10
2023-05-05T05:28:21.189Z,13.16
2023-05-05T05:30:53.115Z,13.23
2023-05-05T05:33:21.668Z,13.33
2023-05-05T05:35:50.729Z,13.31
2023-05-05T05:38:19.769Z,13.40
2023-05-05T05:40:48.544Z,13.48
2023-05-05T05:43:17.057Z,13.47
2023-05-05T05:45:46.097Z,13.52
2023-05-05T05:48:14.501Z,13.54
2023-05-05T05:50:43.437Z,13.64
2023-05-05T05:53:11.821Z,13.79
2023-05-05T05:55:41.275Z,13.93
2023-05-05T05:58:09.876Z,14.12
2023-05-05T06:00:38.169Z,14.18
2023-05-05T06:03:07.774Z,14.12
2023-05-05T06:05:38.053Z,14.27
2023-05-05T06:08:06.400Z,14.39
2023-05-05T06:10:37.262Z,14.41
2023-05-05T06:13:08.983Z,14.53
2023-05-05T06:15:38.969Z,14.64
2023-05-05T06:18:07.735Z,14.66
2023-05-05T06:20:41.350Z,14.66
2023-05-05T06:23:11.936Z,14.71
2023-05-05T06:25:43.923Z,14.74
2023-05-05T06:28:12.320Z,14.83
2023-05-05T06:30:40.870Z,15.01
2023-05-05T06:33:09.191Z,15.17
2023-05-05T06:35:38.437Z,15.23
2023-05-05T06:38:12.202Z,15.27
2023-05-05T06:40:43.431Z,15.16
2023-05-05T06:43:20.034Z,15.23
2023-05-05T06:46:05.685Z,15.19
2023-05-05T06:48:38.250Z,15.19
2023-05-05T06:51:07.409Z,15.18
2023-05-05T06:53:35.836Z,15.17
2023-05-05T06:56:04.324Z,15.17
2023-05-05T06:58:32.808Z,15.18
2023-05-05T07:01:01.384Z,15.17
2023-05-05T07:03:30.370Z,15.10
2023-05-05T07:05:59.416Z,15.18
2023-05-05T07:08:32.177Z,15.19
2023-05-05T07:11:10.209Z,15.28
2023-05-05T07:13:56.527Z,15.27
2023-05-05T07:16:35.021Z,15.20
2023-05-05T07:19:06.443Z,15.26
2023-05-05T07:21:35.620Z,15.14
2023-05-05T07:24:04.918Z,15.10
2023-05-05T07:26:34.736Z,15.09
2023-05-05T07:29:05.799Z,15.07
2023-05-05T07:31:34.432Z,15.02
2023-05-05T07:34:03.239Z,15.13
2023-05-05T07:36:32.474Z,15.17
2023-05-05T07:39:01.318Z,15.31
2023-05-05T07:41:30.200Z,15.33
2023-05-05T07:43:58.613Z,15.42
2023-05-05T07:46:26.827Z,15.47
2023-05-05T07:48:55.309Z,15.50
2023-05-05T07:51:23.771Z,15.47
2023-05-05T07:53:52.125Z,15.64
2023-05-05T07:56:21.798Z,15.73
2023-05-05T07:58:50.251Z,15.82
2023-05-05T08:01:18.806Z,15.90
2023-05-05T08:03:46.999Z,16.05
2023-05-05T08:06:22.430Z,16.12
2023-05-05T08:08:53.592Z,16.09
2023-05-05T08:11:22.400Z,16.10
2023-05-05T08:13:52.220Z,16.11
2023-05-05T08:16:20.973Z,16.18
2023-05-05T08:18:49.329Z,16.29
2023-05-05T08:21:18.637Z,16.26
2023-05-05T08:23:46.882Z,16.34
2023-05-05T08:26:15.151Z,16.39
2023-05-05T08:28:43.671Z,16.44
2023-05-05T08:31:11.880Z,16.44
2023-05-05T08:33:42.017Z,16.46
2023-05-05T08:36:10.156Z,16.55
2023-05-05T08:38:38.353Z,16.65
2023-05-05T08:41:09.299Z,16.77
2023-05-05T08:43:37.645Z,16.83
2023-05-05T08:46:06.715Z,16.85
2023-05-05T08:48:37.828Z,16.89
2023-05-05T08:51:08.775Z,16.96
2023-05-05T08:53:54.587Z,17.03
2023-05-05T08:56:34.073Z,17.09
2023-05-05T08:59:03.374Z,17.16
2023-05-05T09:01:33.659Z,17.16
2023-05-05T09:04:05.456Z,17.24
2023-05-05T09:06:34.434Z,17.38
2023-05-05T09:09:03.083Z,17.51
2023-05-05T09:11:34.831Z,17.56
2023-05-05T09:14:05.247Z,17.66
2023-05-05T09:16:33.564Z,17.76
2023-05-05T09:19:05.519Z,17.77
2023-05-05T09:21:33.750Z,17.82
2023-05-05T09:24:15.064Z,17.99
2023-05-05T09:26:47.872Z,18.12
2023-05-05T09:29:23.476Z,18.14
2023-05-05T09:32:11.268Z,18.13
2023-05-05T09:34:39.917Z,18.22
2023-05-05T09:37:09.573Z,18.29
2023-05-05T09:39:54.537Z,18.37
2023-05-05T09:42:22.849Z,18.56
2023-05-05T09:44:51.684Z,18.68
2023-05-05T09:47:29.547Z,18.72
2023-05-05T09:49:58.997Z,18.47
2023-05-05T09:52:28.050Z,18.52
2023-05-05T09:54:58.000Z,18.51
2023-05-05T09:57:27.926Z,18.41
2023-05-05T10:00:04.424Z,18.35
2023-05-05T10:02:38.963Z,18.20
2023-05-05T10:05:07.488Z,18.20
2023-05-05T10:07:37.061Z,18.37
2023-05-05T10:10:07.940Z,18.47
2023-05-05T10:12:37.821Z,18.56
2023-05-05T10:15:08.343Z,18.67
2023-05-05T10:17:38.839Z,18.75
2023-05-05T10:20:10.693Z,18.82
2023-05-05T10:22:42.606Z,18.86
2023-05-05T10:25:13.944Z,18.99
2023-05-05T10:27:50.881Z,19.05
2023-05-05T10:30:32.042Z,19.06
2023-05-05T10:33:31.088Z,19.18
2023-05-05T10:36:05.341Z,19.41
2023-05-05T10:38:34.377Z,19.35
2023-05-05T10:41:04.359Z,19.28
2023-05-05T10:43:33.551Z,19.29
2023-05-05T10:46:02.896Z,19.25
2023-05-05T10:49:05.177Z,19.12
2023-05-05T10:51:46.708Z,19.09
2023-05-05T10:54:32.814Z,19.19
2023-05-05T10:57:02.920Z,19.08
2023-05-05T10:59:39.419Z,19.07
2023-05-05T11:02:23.032Z,19.09
2023-05-05T11:05:08.486Z,19.24
2023-05-05T11:07:37.996Z,19.36
2023-05-05T11:10:14.618Z,19.34
2023-05-05T11:12:52.696Z,19.21
2023-05-05T11:15:24.274Z,19.39
2023-05-05T11:18:05.851Z,19.65
2023-05-05T11:20:42.182Z,19.95
2023-05-05T11:23:10.494Z,20.26
2023-05-05T11:25:41.521Z,20.43
2023-05-05T11:28:18.302Z,20.50
2023-05-05T11:30:59.514Z,20.45
2023-05-05T11:33:31.927Z,20.46
2023-05-05T11:36:18.350Z,20.41
2023-05-05T11:38:52.943Z,20.08
2023-05-05T11:41:36.245Z,19.94
2023-05-05T11:44:15.119Z,19.97
2023-05-05T11:46:54.342Z,19.91
2023-05-05T11:49:31.821Z,19.97
2023-05-05T11:55:37.106Z,19.82
2023-05-05T11:58:18.736Z,19.71
2023-05-05T12:00:48.245Z,19.74
2023-05-05T12:03:16.577Z,19.65
2023-05-05T12:05:44.918Z,19.47
2023-05-05T12:08:14.823Z,19.45
2023-05-05T12:10:43.313Z,19.47
2023-05-05T12:13:19.373Z,19.46
2023-05-05T12:15:47.829Z,19.39
2023-05-05T12:18:22.713Z,19.39
2023-05-05T12:20:53.790Z,19.34
2023-05-05T12:23:22.155Z,19.27
2023-05-05T12:25:50.425Z,19.33
2023-05-05T12:28:18.777Z,19.32
2023-05-05T12:30:59.968Z,19.32
2023-05-05T12:33:28.500Z,19.28
2023-05-05T12:35:56.743Z,19.29
2023-05-05T12:38:24.927Z,19.31
2023-05-05T12:40:55.600Z,19.40
2023-05-05T12:43:30.074Z,19.47
2023-05-05T12:46:03.845Z,19.30
2023-05-05T12:48:33.422Z,19.17
2023-05-05T12:51:18.707Z,19.09
2023-05-05T12:53:48.653Z,18.94
2023-05-05T12:56:33.438Z,18.88
2023-05-05T12:59:03.505Z,18.79
2023-05-05T13:01:32.118Z,18.72
2023-05-05T13:04:24.716Z,18.65
2023-05-05T13:07:15.853Z,18.62
2023-05-05T13:09:44.533Z,18.56
2023-05-05T13:12:16.667Z,18.48
2023-05-05T13:14:46.892Z,18.43
2023-05-05T13:17:15.257Z,18.37
2023-05-05T13:19:46.619Z,18.38
2023-05-05T13:22:15.205Z,18.33
2023-05-05T13:24:52.355Z,18.27
2023-05-05T13:27:22.427Z,18.22
2023-05-05T13:29:51.019Z,18.18
2023-05-05T13:32:38.513Z,18.17
2023-05-05T13:35:20.390Z,18.11
2023-05-05T13:38:01.598Z,18.12
2023-05-05T13:40:43.292Z,18.08
2023-05-05T13:43:19.174Z,18.01
2023-05-05T13:46:08.690Z,18.01
2023-05-05T13:48:56.018Z,18.02
2023-05-05T13:51:32.779Z,18.00
2023-05-05T13:54:08.225Z,17.97
2023-05-05T13:56:38.904Z,17.92
2023-05-05T13:59:09.503Z,17.92
2023-05-05T14:01:38.894Z,17.94
2023-05-05T14:04:09.569Z,17.95
2023-05-05T14:06:41.413Z,18.02
2023-05-05T14:09:13.405Z,18.02
2023-05-05T14:11:51.694Z,18.06
2023-05-05T14:14:19.972Z,18.06
2023-05-05T14:16:50.234Z,17.99
2023-05-05T14:19:19.194Z,17.98
2023-05-05T14:21:47.646Z,17.96
2023-05-05T14:24:15.903Z,17.94
2023-05-05T14:26:44.300Z,17.99
2023-05-05T14:29:12.896Z,17.98
2023-05-05T14:31:41.263Z,18.00
2023-05-05T14:34:09.529Z,17.99
2023-05-05T14:36:37.867Z,18.00
2023-05-05T14:39:06.160Z,18.02
2023-05-05T14:41:34.498Z,18.08
2023-05-05T14:44:03.007Z,18.12
2023-05-05T14:46:32.211Z,18.15
2023-05-05T14:49:01.534Z,18.17
2023-05-05T14:51:31.702Z,18.20
2023-05-05T14:54:00.191Z,18.29
2023-05-05T14:56:29.026Z,18.36
2023-05-05T14:58:59.462Z,18.40
2023-05-05T15:01:28.086Z,18.45
2023-05-05T15:03:57.490Z,18.50
2023-05-05T15:06:28.303Z,18.58
2023-05-05T15:08:57.521Z,18.75
2023-05-05T15:11:26.476Z,18.88
2023-05-05T15:13:54.873Z,18.99
2023-05-05T15:16:23.531Z,19.07
2023-05-05T15:18:52.295Z,19.21
2023-05-05T15:21:21.157Z,19.28
2023-05-05T15:23:49.412Z,19.35
2023-05-05T15:26:17.968Z,19.29
2023-05-05T15:28:48.200Z,19.18
2023-05-05T15:31:18.670Z,19.10
2023-05-05T15:33:48.761Z,19.05
2023-05-05T15:36:22.736Z,18.97
2023-05-05T15:38:51.464Z,18.93
2023-05-05T15:41:20.137Z,18.89
2023-05-05T15:43:48.338Z,18.84
2023-05-05T15:46:16.741Z,18.82
2023-05-05T15:48:45.017Z,18.80
2023-05-05T15:51:13.381Z,18.77
2023-05-05T15:53:41.797Z,18.76
2023-05-05T15:56:11.834Z,18.76
2023-05-05T15:58:41.272Z,18.76
2023-05-05T16:01:09.593Z,18.74
2023-05-05T16:03:37.921Z,18.72
2023-05-05T16:06:06.735Z,18.72
2023-05-05T16:08:35.384Z,18.74
2023-05-05T16:11:04.756Z,18.76
2023-05-05T16:13:33.120Z,18.78
2023-05-05T16:16:01.617Z,18.78
2023-05-05T16:18:29.963Z,18.79
2023-05-05T16:20:58.432Z,18.80
2023-05-05T16:23:27.193Z,18.79
2023-05-05T16:25:56.911Z,18.79
2023-05-05T16:28:25.153Z,18.76
2023-05-05T16:30:53.595Z,18.69
2023-05-05T16:33:22.732Z,18.61
2023-05-05T16:35:50.971Z,18.58
2023-05-05T16:38:19.425Z,18.54
2023-05-05T16:40:47.917Z,18.53
2023-05-05T16:43:16.175Z,18.53
2023-05-05T16:45:44.711Z,18.48
2023-05-05T16:48:14.921Z,18.42
2023-05-05T16:50:43.670Z,18.34
2023-05-05T16:53:12.259Z,18.29
2023-05-05T16:55:40.757Z,18.27
2023-05-05T16:58:09.241Z,18.22
2023-05-05T17:00:37.768Z,18.17
2023-05-05T17:03:06.554Z,18.09
2023-05-05T17:05:35.462Z,18.01
2023-05-05T17:08:04.627Z,17.94
2023-05-05T17:10:32.942Z,17.81
2023-05-05T17:13:01.264Z,17.70
2023-05-05T17:15:29.466Z,17.55
2023-05-05T17:17:57.807Z,17.44
2023-05-05T17:20:26.488Z,17.35
2023-05-05T17:22:54.796Z,17.25
2023-05-05T17:25:25.821Z,17.12
2023-05-05T17:27:55.184Z,16.99
2023-05-05T17:30:23.904Z,16.90
2023-05-05T17:32:52.781Z,16.82
2023-05-05T17:35:21.381Z,16.73
2023-05-05T17:37:49.901Z,16.63
2023-05-05T17:40:18.334Z,16.50
2023-05-05T17:42:46.876Z,16.38
2023-05-05T17:45:15.564Z,16.25
2023-05-05T17:47:43.949Z,16.11
2023-05-05T17:50:12.227Z,15.97
2023-05-05T17:52:41.568Z,15.84
2023-05-05T17:55:10.469Z,15.72
2023-05-05T18:01:24.302Z,15.51
2023-05-05T18:03:53.170Z,15.37
2023-05-05T18:06:21.998Z,15.27
2023-05-05T18:08:50.433Z,15.18
2023-05-05T18:11:21.376Z,15.09
2023-05-05T18:13:49.662Z,15.00
2023-05-05T18:16:18.137Z,14.93
2023-05-05T18:18:46.737Z,14.87
2023-05-05T18:21:15.285Z,14.81
2023-05-05T18:23:43.793Z,14.74
2023-05-05T18:26:12.282Z,14.66
2023-05-05T18:28:40.684Z,14.59
2023-05-05T18:31:09.267Z,14.53
2023-05-05T18:33:40.496Z,14.47
2023-05-05T18:36:11.013Z,14.40
2023-05-05T18:38:39.708Z,14.35
2023-05-05T18:41:08.553Z,14.33
2023-05-05T18:43:37.112Z,14.30
2023-05-05T18:46:05.493Z,14.25
2023-05-05T18:48:33.850Z,14.16
2023-05-05T18:51:05.866Z,14.12
2023-05-05T18:53:34.596Z,14.04
2023-05-05T18:56:03.058Z,13.94
2023-05-05T18:58:32.037Z,13.87
2023-05-05T19:01:00.427Z,13.80
2023-05-05T19:03:29.021Z,13.73
2023-05-05T19:05:58.742Z,13.68
2023-05-05T19:08:27.352Z,13.62
2023-05-05T19:10:56.688Z,13.55
2023-05-05T19:13:25.111Z,13.49
2023-05-05T19:15:57.710Z,13.45
2023-05-05T19:18:27.025Z,13.43
2023-05-05T19:20:55.381Z,13.40
2023-05-05T19:23:23.805Z,13.37
2023-05-05T19:25:53.060Z,13.30
2023-05-05T19:28:21.573Z,13.24
2023-05-05T19:30:49.884Z,13.19
2023-05-05T19:33:18.119Z,13.14
2023-05-05T19:35:46.690Z,13.11
2023-05-05T19:38:15.992Z,13.05
2023-05-05T19:40:44.278Z,13.00
2023-05-05T19:43:12.709Z,12.95
2023-05-05T19:45:41.319Z,12.90
2023-05-05T19:48:09.616Z,12.87
2023-05-05T19:50:38.060Z,12.83
2023-05-05T19:53:06.448Z,12.79
2023-05-05T19:55:34.798Z,12.74
2023-05-05T19:58:03.179Z,12.70
2023-05-05T20:00:31.730Z,12.68
2023-05-05T20:03:00.377Z,12.68
2023-05-05T20:05:28.902Z,12.66
2023-05-05T20:07:57.366Z,12.64
2023-05-05T20:10:26.813Z,12.62
2023-05-05T20:12:55.049Z,12.57
2023-05-05T20:15:23.326Z,12.52
2023-05-05T20:17:51.678Z,12.50
2023-05-05T20:20:22.218Z,12.46
2023-05-05T20:22:50.634Z,12.42
2023-05-05T20:25:19.011Z,12.38
2023-05-05T20:27:47.850Z,12.33
2023-05-05T20:30:16.755Z,12.29
2023-05-05T20:32:45.543Z,12.24
2023-05-05T20:35:13.720Z,12.22
2023-05-05T20:37:42.057Z,12.18
2023-05-05T20:40:11.270Z,12.14
2023-05-05T20:42:39.822Z,12.07
2023-05-05T20:45:08.390Z,11.99
2023-05-05T20:47:36.895Z,11.92
2023-05-05T20:50:06.146Z,11.85
2023-05-05T20:52:35.168Z,11.80
2023-05-05T20:55:03.710Z,11.81
2023-05-05T20:57:32.098Z,11.79
2023-05-05T21:00:00.438Z,11.77
2023-05-05T21:02:28.807Z,11.76
2023-05-05T21:05:02.578Z,11.74
2023-05-05T21:07:34.505Z,11.70
2023-05-05T21:10:04.792Z,11.62
2023-05-05T21:12:34.603Z,11.54
2023-05-05T21:15:03.570Z,11.46
2023-05-05T21:17:32.259Z,11.36
2023-05-05T21:20:00.809Z,11.27
2023-05-05T21:22:29.218Z,11.18
2023-05-05T21:25:14.412Z,11.08
2023-05-05T21:27:43.042Z,11.00
2023-05-05T21:30:11.600Z,10.98
2023-05-05T21:32:41.771Z,10.97
2023-05-05T21:35:10.848Z,10.95
2023-05-05T21:37:39.834Z,10.92
2023-05-05T21:40:13.766Z,10.90
2023-05-05T21:42:43.913Z,10.89
2023-05-05T21:45:13.255Z,10.91
2023-05-05T21:47:42.649Z,10.93
2023-05-05T21:50:12.630Z,10.96
2023-05-05T21:52:41.611Z,11.00
2023-05-05T21:55:11.538Z,11.00
2023-05-05T21:57:39.809Z,10.96
2023-05-05T22:00:09.214Z,10.90
2023-05-05T22:02:47.382Z,10.83
2023-05-05T22:05:16.445Z,10.76
2023-05-05T22:07:45.167Z,10.68
2023-05-05T22:10:13.479Z,10.63
2023-05-05T22:12:42.026Z,10.60
2023-05-05T22:15:11.513Z,10.59
2023-05-05T22:17:40.342Z,10.58
2023-05-05T22:20:09.464Z,10.56
2023-05-05T22:22:38.474Z,10.54
2023-05-05T22:25:07.491Z,10.51
2023-05-05T22:27:36.170Z,10.44
2023-05-05T22:30:04.944Z,10.36
2023-05-05T22:32:33.777Z,10.29
2023-05-05T22:35:02.301Z,10.24
2023-05-05T22:37:30.601Z,10.20
2023-05-05T22:40:00.483Z,10.14
2023-05-05T22:42:29.852Z,10.06
2023-05-05T22:44:58.256Z,10.00
2023-05-05T22:47:26.925Z,9.93
2023-05-05T22:49:55.344Z,9.91
2023-05-05T22:52:25.692Z,9.90
2023-05-05T22:54:54.140Z,9.89
2023-05-05T22:57:22.721Z,9.87
2023-05-05T22:59:51.510Z,9.83
2023-05-05T23:02:19.947Z,9.80
2023-05-05T23:04:48.612Z,9.78
2023-05-05T23:07:17.004Z,9.74
2023-05-05T23:09:47.111Z,9.69
2023-05-05T23:12:15.836Z,9.63
2023-05-05T23:14:44.821Z,9.58
2023-05-05T23:17:13.610Z,9.54
2023-05-05T23:19:42.275Z,9.51
2023-05-05T23:22:10.948Z,9.47
2023-05-05T23:24:39.985Z,9.43
2023-05-05T23:27:08.495Z,9.38
2023-05-05T23:29:37.064Z,9.31
2023-05-05T23:32:06.595Z,9.28
2023-05-05T23:34:35.213Z,9.26
2023-05-05T23:37:06.058Z,9.19
2023-05-05T23:39:35.497Z,9.13
2023-05-05T23:42:04.149Z,9.08
2023-05-05T23:44:33.133Z,9.00
2023-05-05T23:47:01.872Z,8.94
2023-05-05T23:49:30.602Z,8.87
2023-05-05T23:51:59.267Z,8.85
2023-05-05T23:54:27.816Z,8.79
2023-05-05T23:56:56.141Z,8.73
2023-05-05T23:59:24.571Z,8.69
